ADDS METAR Data INFO
IDs: Format: Raw Decoded Include TAF

Data at: 0351 UTC 18 Oct 2017

KBED 180256Z AUTO 21004KT 10SM CLR 06/00 A3022 RMK AO2 SLP247 T00610000 50003
KBED 180156Z 22005KT 10SM CLR 07/01 A3023 RMK AO2 SLP250 T00670006
KBED 180056Z 21005KT 10SM CLR 07/01 A3022 RMK AO2 SLP249 T00720006
KBED 172356Z 00000KT 10SM CLR 05/00 A3021 RMK AO2 SLP246 T00500000 10139 20050 53007
KBED 172256Z 21004KT 10SM CLR 08/M01 A3020 RMK AO2 SLP244 T00831006
KBED 172156Z 20003KT 10SM CLR 11/M01 A3019 RMK AO2 SLP238 T01111006
KBED 172056Z 23006KT 10SM CLR 13/M03 A3019 RMK AO2 SLP238 T01331033 56014
KBED 171956Z VRB05KT 10SM CLR 13/M04 A3020 RMK AO2 SLP242 T01331044
KBED 171856Z 00000KT 10SM CLR 14/M04 A3021 RMK AO2 SLP246 T01391044
KBED 171756Z 00000KT 10SM CLR 13/M04 A3023 RMK AO2 SLP251 T01281039 10133 20006 58017
KBED 171656Z VRB05KT 10SM CLR 12/M04 A3025 RMK AO2 SLP260 T01171039
KBED 171556Z VRB03KT 10SM CLR 11/M03 A3028 RMK AO2 SLP268 T01061028
KBED 171456Z 03003KT 10SM CLR 09/M03 A3028 RMK AO2 SLP269 T00941028 50001
KBED 171356Z 31009KT 10SM CLR 08/M02 A3029 RMK AO2 SLP273 T00831017
KBED 171256Z 33006KT 10SM CLR 06/00 A3029 RMK AO2 SLP272 T00560000
KBED 171156Z 00000KT 10SM CLR 01/M01 A3028 RMK AO2 SLP268 I6001 T00061011 10017 21011 53019
KBED 171056Z 00000KT 10SM CLR M01/M03 A3026 RMK AO2 SLP261 I1001 T10061028
KBED 170956Z 00000KT 10SM CLR 00/M02 A3024 RMK AO2 SLP254 I1000 T00001022
KBED 170856Z 00000KT 10SM CLR 01/M02 A3022 RMK AO2 SLP249 T00111017 53018
KBED 170756Z 30005KT 10SM CLR 00/M02 A3020 RMK AO2 SLP243 T00001022
KBED 170656Z 30005KT 10SM CLR 01/M02 A3018 RMK AO2 SLP235 T00111017
KBED 170556Z 29004KT 10SM CLR 02/M01 A3017 RMK AO2 SLP231 T00171011 10083 20017 51006
KBED 170456Z 30004KT 10SM CLR 03/M01 A3016 RMK AO2 SLP228 T00281011 402060028
KBED 170356Z 31003KT 10SM CLR 04/M01 A3016 RMK AO2 SLP226 T00391006
KBED 170256Z 30005KT 10SM CLR 04/M01 A3015 RMK AO2 SLP224 T00441006 51025
KBED 170156Z 33007KT 10SM CLR 06/M01 A3014 RMK AO2 SLP218 T00611006
KBED 170056Z 33013G21KT 10SM SCT130 08/M01 A3011 RMK AO2 SLP209 T00781006
KBED 162356Z 33009KT 10SM CLR 08/00 A3008 RMK AO2 SLP198 T00830000 10122 20083 53027
KBED 162256Z 32007KT 10SM BKN130 09/01 A3004 RMK AO2 SLP186 T00940006
KBED 162156Z 32010KT 10SM SCT050 BKN130 10/02 A3002 RMK AO2 SLP177 T01000017
KBED 162056Z 32013KT 10SM SCT050 BKN130 11/02 A3000 RMK AO2 SLP170 T01110022 53019
KBED 161956Z 32009KT 10SM SCT050 BKN130 12/02 A2996 RMK AO2 SLP159 T01170022
KBED 161856Z 31011KT 10SM CLR 12/03 A2995 RMK AO2 SLP154 T01170028
KBED 161756Z 33011G19KT 10SM CLR 12/02 A2994 RMK AO2 SLP151 T01170022 10156 20117 50005
KBED 161656Z 31012KT 10SM FEW034 13/04 A2994 RMK AO2 SLP151 T01330039
KBED 161556Z 32011KT 10SM SCT035 OVC130 13/05 A2994 RMK AO2 SLP149 T01330050